createdAt,value
2019-04-29T00:01:02.293Z,75.16
2019-04-29T00:05:09.766Z,74.77
2019-04-29T00:09:18.829Z,75.10
2019-04-29T00:13:25.622Z,75.10
2019-04-29T00:17:42.026Z,75.05
2019-04-29T00:21:50.324Z,74.94
2019-04-29T00:25:57.044Z,75.14
2019-04-29T00:30:03.868Z,75.05
2019-04-29T00:34:11.251Z,74.72
2019-04-29T00:38:37.663Z,74.56
2019-04-29T00:42:53.445Z,74.46
2019-04-29T00:47:00.146Z,74.89
2019-04-29T00:51:07.885Z,75.28
2019-04-29T00:55:17.193Z,75.68
2019-04-29T00:59:23.932Z,75.08
2019-04-29T01:03:31.179Z,76.34
2019-04-29T01:07:37.849Z,75.89
2019-04-29T01:11:45.072Z,75.89
2019-04-29T01:15:52.798Z,76.12
2019-04-29T01:19:59.495Z,77.62
2019-04-29T01:24:06.622Z,76.92
2019-04-29T01:28:22.122Z,77.15
2019-04-29T01:32:28.824Z,77.65
2019-04-29T01:36:38.313Z,78.41
2019-04-29T01:40:51.421Z,78.12
2019-04-29T01:44:58.233Z,78.32
2019-04-29T01:49:04.956Z,78.51
2019-04-29T01:53:11.608Z,78.26
2019-04-29T01:57:19.042Z,79.12
2019-04-29T02:01:25.709Z,78.62
2019-04-29T02:05:33.803Z,79.04
2019-04-29T02:09:58.274Z,78.81
2019-04-29T02:14:04.980Z,78.59
2019-04-29T02:18:11.742Z,78.47
2019-04-29T02:22:28.914Z,77.84
2019-04-29T02:26:35.658Z,78.38
2019-04-29T02:30:46.752Z,78.58
2019-04-29T02:34:53.521Z,78.64
2019-04-29T02:39:34.217Z,78.76
2019-04-29T02:43:42.573Z,78.32
2019-04-29T02:47:49.466Z,78.25
2019-04-29T02:51:56.241Z,78.42
2019-04-29T02:56:03.279Z,78.02
2019-04-29T03:00:20.803Z,77.38
2019-04-29T03:04:29.910Z,78.71
2019-04-29T03:08:36.606Z,77.37
2019-04-29T03:12:43.325Z,77.39
2019-04-29T03:16:50.157Z,77.73
2019-04-29T03:21:05.473Z,77.49
2019-04-29T03:25:12.362Z,77.96
2019-04-29T03:29:25.422Z,77.82
2019-04-29T03:33:32.289Z,78.11
2019-04-29T03:37:39.022Z,78.16
2019-04-29T03:41:45.715Z,78.11
2019-04-29T03:45:52.647Z,78.20
2019-04-29T03:49:59.491Z,78.22
2019-04-29T03:54:07.871Z,78.45
2019-04-29T03:58:14.601Z,78.70
2019-04-29T04:02:46.028Z,79.27
2019-04-29T04:06:58.321Z,79.91
2019-04-29T04:11:05.126Z,79.27
2019-04-29T04:15:11.932Z,79.66
2019-04-29T04:19:19.727Z,78.68
2019-04-29T04:23:26.618Z,78.99
2019-04-29T04:27:33.293Z,79.37
2019-04-29T04:31:41.131Z,79.32
2019-04-29T04:35:47.800Z,79.53
2019-04-29T04:39:55.023Z,79.49
2019-04-29T04:44:01.775Z,79.69
2019-04-29T04:48:08.524Z,79.94
2019-04-29T04:52:15.325Z,79.67
2019-04-29T04:56:22.300Z,79.29
2019-04-29T05:00:30.828Z,79.39
2019-04-29T05:04:37.584Z,79.29
2019-04-29T05:08:44.262Z,78.79
2019-04-29T05:12:50.967Z,78.87
2019-04-29T05:16:57.766Z,79.24
2019-04-29T05:21:04.562Z,78.60
2019-04-29T05:25:11.466Z,78.19
2019-04-29T05:29:18.401Z,77.93
2019-04-29T05:33:25.185Z,77.39
2019-04-29T05:37:37.750Z,77.81
2019-04-29T05:41:44.466Z,77.87
2019-04-29T05:45:58.354Z,77.81
2019-04-29T05:50:42.765Z,77.12
2019-04-29T05:54:49.652Z,77.07
2019-04-29T05:58:56.901Z,76.92
2019-04-29T06:03:03.787Z,77.65
2019-04-29T06:07:10.540Z,75.40
2019-04-29T06:11:17.223Z,74.68
2019-04-29T06:15:23.958Z,74.25
2019-04-29T06:19:35.154Z,74.12
2019-04-29T06:23:42.613Z,74.25
2019-04-29T06:27:49.406Z,73.40
2019-04-29T06:31:56.112Z,73.49
2019-04-29T06:36:02.904Z,72.68
2019-04-29T06:40:10.297Z,72.10
2019-04-29T06:44:17.082Z,72.51
2019-04-29T06:48:23.811Z,72.31
2019-04-29T06:52:30.632Z,72.57
2019-04-29T06:56:37.341Z,72.18
2019-04-29T07:00:44.110Z,71.38
2019-04-29T07:04:50.837Z,70.68
2019-04-29T07:08:57.659Z,70.15
2019-04-29T07:13:04.492Z,69.79
2019-04-29T07:17:11.272Z,68.94
2019-04-29T07:21:17.969Z,68.86
2019-04-29T07:25:28.342Z,67.76
2019-04-29T07:29:33.527Z,66.73
2019-04-29T07:33:40.429Z,65.77
2019-04-29T07:37:47.132Z,66.14
2019-04-29T07:41:54.734Z,65.49
2019-04-29T07:46:17.812Z,64.62
2019-04-29T07:50:26.624Z,63.25
2019-04-29T07:54:33.167Z,63.13
2019-04-29T07:58:39.896Z,62.15
2019-04-29T08:02:47.251Z,62.53
2019-04-29T08:06:55.367Z,62.67
2019-04-29T08:11:02.073Z,60.35
2019-04-29T08:15:10.555Z,60.12
2019-04-29T08:19:17.423Z,60.05
2019-04-29T08:23:24.232Z,58.69
2019-04-29T08:27:39.817Z,58.74
2019-04-29T08:31:39.457Z,57.67
2019-04-29T08:35:46.899Z,56.99
2019-04-29T08:40:14.788Z,56.16
2019-04-29T08:44:26.879Z,55.35
2019-04-29T08:48:33.667Z,53.76
2019-04-29T08:52:40.435Z,52.53
2019-04-29T08:57:02.381Z,52.49
2019-04-29T09:00:56.165Z,51.65
2019-04-29T09:05:06.753Z,52.32
2019-04-29T09:09:27.955Z,52.08
2019-04-29T09:13:21.088Z,50.35
2019-04-29T09:17:27.759Z,50.22
2019-04-29T09:21:34.588Z,49.65
2019-04-29T09:26:03.395Z,50.21
2019-04-29T09:30:13.418Z,50.56
2019-04-29T09:34:24.703Z,49.87
2019-04-29T09:38:32.541Z,50.04
2019-04-29T09:43:15.233Z,51.51
2019-04-29T09:47:14.491Z,51.85
2019-04-29T09:51:22.464Z,51.65
2019-04-29T09:55:30.094Z,50.96
2019-04-29T09:59:45.408Z,51.28
2019-04-29T10:04:11.614Z,50.58
2019-04-29T10:08:18.537Z,50.73
2019-04-29T10:12:25.290Z,50.68
2019-04-29T10:16:51.584Z,51.33
2019-04-29T10:21:01.818Z,50.19
2019-04-29T10:25:09.550Z,49.53
2019-04-29T10:29:20.175Z,49.93
2019-04-29T10:33:28.058Z,49.64
2019-04-29T10:37:36.367Z,49.84
2019-04-29T10:41:44.285Z,49.61
2019-04-29T10:46:15.776Z,50.90
2019-04-29T10:50:30.521Z,49.25
2019-04-29T10:54:37.764Z,48.56
2019-04-29T10:58:44.548Z,48.58
2019-04-29T11:02:51.600Z,47.33
2019-04-29T11:07:13.410Z,47.56
2019-04-29T11:11:22.116Z,46.72
2019-04-29T11:15:21.798Z,46.20
2019-04-29T11:19:28.744Z,46.32
2019-04-29T11:23:41.707Z,44.78
2019-04-29T11:27:51.995Z,42.66
2019-04-29T11:32:00.371Z,40.08
2019-04-29T11:36:11.825Z,37.95
2019-04-29T11:40:26.104Z,38.05
2019-04-29T11:44:31.987Z,37.50
2019-04-29T11:48:38.953Z,38.71
2019-04-29T11:52:48.161Z,35.85
2019-04-29T11:56:55.225Z,36.33
2019-04-29T12:01:37.336Z,35.10
2019-04-29T12:05:40.127Z,36.31
2019-04-29T12:09:50.020Z,37.45
2019-04-29T12:14:14.053Z,36.94
2019-04-29T12:18:24.448Z,37.06
2019-04-29T12:22:31.337Z,37.55
2019-04-29T12:26:42.997Z,37.65
2019-04-29T12:30:48.279Z,39.00
2019-04-29T12:35:21.717Z,39.76
2019-04-29T12:39:59.720Z,39.85
2019-04-29T12:44:09.855Z,40.43
2019-04-29T12:48:25.100Z,40.60
2019-04-29T12:52:27.343Z,41.84
2019-04-29T12:56:36.627Z,41.73
2019-04-29T13:00:48.053Z,41.80
2019-04-29T13:05:14.222Z,41.41
2019-04-29T13:09:28.099Z,42.78
2019-04-29T13:13:34.998Z,42.03
2019-04-29T13:18:03.127Z,42.19
2019-04-29T13:22:01.973Z,41.90
2019-04-29T13:26:08.956Z,42.95
2019-04-29T13:30:16.503Z,42.53
2019-04-29T13:34:33.474Z,44.28
2019-04-29T13:38:40.062Z,44.31
2019-04-29T13:42:49.224Z,45.99
2019-04-29T13:47:07.454Z,45.90
2019-04-29T13:51:34.726Z,45.61
2019-04-29T13:55:47.036Z,47.08
2019-04-29T13:59:47.570Z,47.14
2019-04-29T14:03:55.421Z,47.77
2019-04-29T14:08:03.970Z,48.86
2019-04-29T14:12:46.588Z,48.36
2019-04-29T14:16:47.505Z,47.70
2019-04-29T14:20:53.444Z,47.78
2019-04-29T14:25:02.755Z,47.10
2019-04-29T14:29:11.620Z,46.94
2019-04-29T14:33:26.184Z,48.11
2019-04-29T14:37:33.739Z,49.67
2019-04-29T14:41:51.035Z,48.45
2019-04-29T14:46:19.199Z,49.99
2019-04-29T14:50:28.896Z,50.58
2019-04-29T14:54:50.787Z,50.04
2019-04-29T14:59:06.725Z,50.26
2019-04-29T15:03:10.691Z,50.94
2019-04-29T15:07:20.977Z,50.20
2019-04-29T15:11:35.624Z,49.16
2019-04-29T15:16:05.314Z,48.44
2019-04-29T15:20:40.890Z,48.40
2019-04-29T15:24:48.555Z,48.22
2019-04-29T15:28:56.043Z,48.41
2019-04-29T15:33:07.192Z,49.48
2019-04-29T15:37:16.981Z,50.55
2019-04-29T15:41:33.182Z,50.77
2019-04-29T15:45:41.073Z,52.69
2019-04-29T15:49:55.508Z,53.54
2019-04-29T15:54:09.149Z,55.90
2019-04-29T15:58:15.389Z,59.13
2019-04-29T16:03:42.819Z,58.73
2019-04-29T16:14:54.248Z,61.96
2019-04-29T16:19:31.640Z,64.79
2019-04-29T16:23:44.480Z,66.25
2019-04-29T16:28:07.068Z,67.19
2019-04-29T16:32:21.586Z,68.01
2019-04-29T16:36:35.125Z,68.93
2019-04-29T16:40:57.210Z,68.93
2019-04-29T16:45:12.112Z,70.23
2019-04-29T16:49:16.329Z,69.67
2019-04-29T16:53:23.222Z,70.16
2019-04-29T16:57:29.937Z,69.96
2019-04-29T17:01:36.721Z,69.71
2019-04-29T17:05:43.800Z,69.92
2019-04-29T17:10:03.321Z,70.76
2019-04-29T17:14:12.735Z,70.82
2019-04-29T17:18:19.238Z,71.42
2019-04-29T17:22:27.698Z,70.01
2019-04-29T17:26:44.108Z,69.77
2019-04-29T17:31:22.904Z,70.35
2019-04-29T17:35:32.410Z,69.90
2019-04-29T17:39:40.238Z,70.61
2019-04-29T17:44:09.496Z,71.70
2019-04-29T17:48:35.642Z,70.49
2019-04-29T17:52:46.457Z,71.84
2019-04-29T17:57:25.643Z,72.03
2019-04-29T18:01:56.136Z,71.12
2019-04-29T18:06:49.002Z,71.44
2019-04-29T18:11:06.604Z,73.33
2019-04-29T18:15:17.676Z,75.36
2019-04-29T18:19:30.872Z,74.98
2019-04-29T18:23:56.793Z,75.58
2019-04-29T18:28:05.201Z,77.23
2019-04-29T18:32:12.190Z,74.43
2019-04-29T18:36:24.040Z,75.47
2019-04-29T18:40:30.149Z,75.59
2019-04-29T18:44:54.275Z,74.95
2019-04-29T18:48:50.087Z,74.73
2019-04-29T18:52:57.514Z,75.31
2019-04-29T18:57:05.861Z,76.33
2019-04-29T19:01:14.032Z,75.73
2019-04-29T19:05:32.367Z,76.82
2019-04-29T19:09:49.614Z,76.92
2019-04-29T19:13:56.658Z,77.77
2019-04-29T19:18:07.633Z,76.51
2019-04-29T19:22:16.506Z,77.30
2019-04-29T19:26:25.845Z,77.01
2019-04-29T19:30:32.311Z,76.93
2019-04-29T19:34:43.088Z,78.78
2019-04-29T19:38:48.351Z,78.17
2019-04-29T19:42:55.936Z,78.53
2019-04-29T19:47:03.328Z,78.93
2019-04-29T19:51:16.021Z,79.18
2019-04-29T19:55:18.854Z,78.90
2019-04-29T19:59:26.807Z,79.04
2019-04-29T20:03:41.551Z,79.77
2019-04-29T20:07:50.305Z,80.13
2019-04-29T20:12:13.274Z,79.94
2019-04-29T20:16:43.077Z,81.40
2019-04-29T20:20:42.843Z,80.46
2019-04-29T20:24:51.706Z,79.44
2019-04-29T20:28:59.418Z,79.91
2019-04-29T20:33:11.100Z,80.18
2019-04-29T20:37:18.142Z,80.33
2019-04-29T20:41:38.106Z,80.42
2019-04-29T20:45:32.119Z,81.12
2019-04-29T20:49:39.842Z,80.76
2019-04-29T20:53:56.092Z,81.32
2019-04-29T20:58:06.393Z,81.41
2019-04-29T21:02:13.244Z,81.36
2019-04-29T21:06:21.593Z,81.09
2019-04-29T21:10:30.526Z,81.55
2019-04-29T21:14:46.340Z,81.36
2019-04-29T21:18:56.690Z,81.71
2019-04-29T21:23:03.081Z,81.85
2019-04-29T21:27:10.075Z,81.85
2019-04-29T21:31:20.017Z,82.08
2019-04-29T21:35:36.113Z,82.53
2019-04-29T21:39:56.353Z,82.83
2019-04-29T21:44:05.187Z,84.01
2019-04-29T21:48:12.028Z,83.96
2019-04-29T21:52:19.580Z,83.86
2019-04-29T21:56:27.673Z,84.15
2019-04-29T22:00:35.233Z,84.41
2019-04-29T22:04:45.003Z,84.64
2019-04-29T22:08:54.280Z,84.89
2019-04-29T22:13:02.372Z,84.29
2019-04-29T22:17:09.354Z,84.72
2019-04-29T22:21:22.036Z,84.64
2019-04-29T22:25:25.840Z,83.94
2019-04-29T22:29:37.310Z,84.05
2019-04-29T22:33:41.468Z,83.83
2019-04-29T22:37:48.622Z,83.72
2019-04-29T22:42:29.328Z,83.46
2019-04-29T22:46:40.192Z,83.71
2019-04-29T22:50:47.399Z,83.47
2019-04-29T22:55:01.619Z,83.55
2019-04-29T22:59:07.608Z,83.38
2019-04-29T23:03:14.395Z,83.26
2019-04-29T23:07:22.186Z,83.01
2019-04-29T23:11:34.687Z,82.97
2019-04-29T23:15:39.211Z,82.58
2019-04-29T23:19:50.606Z,82.48
2019-04-29T23:24:13.267Z,82.24
2019-04-29T23:28:16.513Z,82.09
2019-04-29T23:32:25.235Z,82.55
2019-04-29T23:36:32.769Z,82.33
2019-04-29T23:40:39.616Z,81.72
2019-04-29T23:44:46.741Z,81.33
2019-04-29T23:48:56.540Z,81.36
2019-04-29T23:53:02.656Z,81.46
2019-04-29T23:57:35.867Z,81.17
